sensor_id;sensor_type;location;lat;lon;timestamp;pressure;altitude;pressure_sealevel;temperature;humidity
15694;BME280;7947;48.834;9.132;2023-10-19T00:02:36;96575.50;;;12.39;100.00
15694;BME280;7947;48.834;9.132;2023-10-19T00:05:39;96570.91;;;12.40;100.00
15694;BME280;7947;48.834;9.132;2023-10-19T00:08:43;96561.72;;;12.41;100.00
15694;BME280;7947;48.834;9.132;2023-10-19T00:11:46;96566.47;;;12.44;100.00
15694;BME280;7947;48.834;9.132;2023-10-19T00:14:49;96562.66;;;12.45;100.00
15694;BME280;7947;48.834;9.132;2023-10-19T00:17:52;96556.63;;;12.48;100.00
15694;BME280;7947;48.834;9.132;2023-10-19T00:20:56;96562.16;;;12.51;100.00
15694;BME280;7947;48.834;9.132;2023-10-19T00:24:12;96563.91;;;12.47;100.00
15694;BME280;7947;48.834;9.132;2023-10-19T00:27:18;96563.56;;;12.49;100.00
15694;BME280;7947;48.834;9.132;2023-10-19T00:30:25;96565.16;;;12.50;100.00
15694;BME280;7947;48.834;9.132;2023-10-19T00:33:32;96569.75;;;12.49;100.00
15694;BME280;7947;48.834;9.132;2023-10-19T00:36:35;96575.31;;;12.44;100.00
15694;BME280;7947;48.834;9.132;2023-10-19T00:39:40;96573.72;;;12.43;100.00
15694;BME280;7947;48.834;9.132;2023-10-19T00:42:45;96564.88;;;12.43;100.00
15694;BME280;7947;48.834;9.132;2023-10-19T00:45:55;96549.53;;;12.43;100.00
15694;BME280;7947;48.834;9.132;2023-10-19T00:49:01;96537.34;;;12.46;100.00
15694;BME280;7947;48.834;9.132;2023-10-19T00:52:07;96525.75;;;12.54;100.00
15694;BME280;7947;48.834;9.132;2023-10-19T00:55:15;96511.38;;;12.50;100.00
15694;BME280;7947;48.834;9.132;2023-10-19T00:58:20;96515.50;;;12.47;100.00
15694;BME280;7947;48.834;9.132;2023-10-19T01:01:32;96500.19;;;12.48;100.00
15694;BME280;7947;48.834;9.132;2023-10-19T01:04:39;96497.63;;;12.51;100.00
15694;BME280;7947;48.834;9.132;2023-10-19T01:07:44;96506.59;;;12.55;100.00
15694;BME280;7947;48.834;9.132;2023-10-19T01:10:48;96508.63;;;12.58;100.00
15694;BME280;7947;48.834;9.132;2023-10-19T01:13:54;96505.94;;;12.58;100.00
15694;BME280;7947;48.834;9.132;2023-10-19T01:16:58;96499.94;;;12.61;100.00
15694;BME280;7947;48.834;9.132;2023-10-19T01:20:02;96500.84;;;12.65;100.00
15694;BME280;7947;48.834;9.132;2023-10-19T01:23:15;96494.00;;;12.68;100.00
15694;BME280;7947;48.834;9.132;2023-10-19T01:26:27;96493.03;;;12.73;100.00
15694;BME280;7947;48.834;9.132;2023-10-19T01:29:30;96483.19;;;12.77;100.00
15694;BME280;7947;48.834;9.132;2023-10-19T01:32:33;96477.16;;;12.80;100.00
15694;BME280;7947;48.834;9.132;2023-10-19T01:35:36;96473.47;;;12.84;100.00
15694;BME280;7947;48.834;9.132;2023-10-19T01:38:55;96480.13;;;12.87;100.00
15694;BME280;7947;48.834;9.132;2023-10-19T01:42:02;96474.41;;;12.88;100.00
15694;BME280;7947;48.834;9.132;2023-10-19T01:45:07;96463.63;;;12.88;100.00
15694;BME280;7947;48.834;9.132;2023-10-19T01:48:13;96472.97;;;12.91;100.00
15694;BME280;7947;48.834;9.132;2023-10-19T01:51:17;96467.59;;;12.91;100.00
15694;BME280;7947;48.834;9.132;2023-10-19T01:54:22;96463.75;;;12.92;100.00
15694;BME280;7947;48.834;9.132;2023-10-19T01:57:26;96462.97;;;12.91;100.00
15694;BME280;7947;48.834;9.132;2023-10-19T02:00:29;96456.81;;;12.91;100.00
15694;BME280;7947;48.834;9.132;2023-10-19T02:03:31;96453.00;;;12.92;100.00
15694;BME280;7947;48.834;9.132;2023-10-19T02:06:35;96448.75;;;12.91;100.00
15694;BME280;7947;48.834;9.132;2023-10-19T02:09:40;96448.75;;;12.91;100.00
15694;BME280;7947;48.834;9.132;2023-10-19T02:12:44;96450.31;;;12.92;100.00
15694;BME280;7947;48.834;9.132;2023-10-19T02:15:48;96442.25;;;12.92;100.00
15694;BME280;7947;48.834;9.132;2023-10-19T02:18:53;96444.94;;;12.92;100.00
15694;BME280;7947;48.834;9.132;2023-10-19T02:21:56;96441.44;;;12.91;100.00
15694;BME280;7947;48.834;9.132;2023-10-19T02:25:01;96444.94;;;12.92;100.00
15694;BME280;7947;48.834;9.132;2023-10-19T02:28:06;96436.06;;;12.91;100.00
15694;BME280;7947;48.834;9.132;2023-10-19T02:31:10;96433.06;;;12.93;100.00
15694;BME280;7947;48.834;9.132;2023-10-19T02:34:20;96428.78;;;12.92;100.00
15694;BME280;7947;48.834;9.132;2023-10-19T02:37:24;96428.78;;;12.92;100.00
15694;BME280;7947;48.834;9.132;2023-10-19T02:40:28;96421.38;;;12.89;100.00
15694;BME280;7947;48.834;9.132;2023-10-19T02:43:33;96418.25;;;12.87;100.00
15694;BME280;7947;48.834;9.132;2023-10-19T02:46:36;96420.94;;;12.87;100.00
15694;BME280;7947;48.834;9.132;2023-10-19T02:49:41;96424.25;;;12.84;100.00
15694;BME280;7947;48.834;9.132;2023-10-19T02:52:45;96419.22;;;12.82;100.00
15694;BME280;7947;48.834;9.132;2023-10-19T02:55:50;96417.31;;;12.83;100.00
15694;BME280;7947;48.834;9.132;2023-10-19T02:58:53;96412.28;;;12.81;100.00
15694;BME280;7947;48.834;9.132;2023-10-19T03:02:01;96417.31;;;12.83;100.00
15694;BME280;7947;48.834;9.132;2023-10-19T03:05:09;96404.97;;;12.82;100.00
15694;BME280;7947;48.834;9.132;2023-10-19T03:08:16;96403.75;;;12.79;100.00
15694;BME280;7947;48.834;9.132;2023-10-19T03:11:22;96406.09;;;12.81;100.00
15694;BME280;7947;48.834;9.132;2023-10-19T03:14:24;96389.19;;;12.80;100.00
15694;BME280;7947;48.834;9.132;2023-10-19T03:17:27;96388.84;;;12.82;100.00
15694;BME280;7947;48.834;9.132;2023-10-19T03:20:32;96387.28;;;12.81;100.00
15694;BME280;7947;48.834;9.132;2023-10-19T03:23:34;96391.41;;;12.78;100.00
15694;BME280;7947;48.834;9.132;2023-10-19T03:26:40;96391.97;;;12.72;100.00
15694;BME280;7947;48.834;9.132;2023-10-19T03:29:51;96380.59;;;12.66;100.00
15694;BME280;7947;48.834;9.132;2023-10-19T03:32:56;96385.06;;;12.62;100.00
15694;BME280;7947;48.834;9.132;2023-10-19T03:36:02;96374.50;;;12.57;100.00
15694;BME280;7947;48.834;9.132;2023-10-19T03:39:06;96381.34;;;12.54;100.00
15694;BME280;7947;48.834;9.132;2023-10-19T03:42:16;96375.50;;;12.52;100.00
15694;BME280;7947;48.834;9.132;2023-10-19T03:45:18;96382.47;;;12.53;100.00
15694;BME280;7947;48.834;9.132;2023-10-19T03:48:25;96378.19;;;12.52;100.00
15694;BME280;7947;48.834;9.132;2023-10-19T03:51:35;96378.53;;;12.51;100.00
15694;BME280;7947;48.834;9.132;2023-10-19T03:54:59;96368.56;;;12.51;100.00
15694;BME280;7947;48.834;9.132;2023-10-19T03:58:03;96367.31;;;12.49;100.00
15694;BME280;7947;48.834;9.132;2023-10-19T04:01:06;96364.94;;;12.47;100.00
15694;BME280;7947;48.834;9.132;2023-10-19T04:04:10;96356.88;;;12.47;100.00
15694;BME280;7947;48.834;9.132;2023-10-19T04:07:16;96350.72;;;12.47;100.00
15694;BME280;7947;48.834;9.132;2023-10-19T04:10:23;96346.47;;;12.46;100.00
15694;BME280;7947;48.834;9.132;2023-10-19T04:13:48;96346.13;;;12.47;100.00
15694;BME280;7947;48.834;9.132;2023-10-19T04:16:54;96337.94;;;12.44;100.00
15694;BME280;7947;48.834;9.132;2023-10-19T04:19:57;96333.66;;;12.43;100.00
15694;BME280;7947;48.834;9.132;2023-10-19T04:23:00;96331.19;;;12.38;100.00
15694;BME280;7947;48.834;9.132;2023-10-19T04:26:13;96329.50;;;12.33;100.00
15694;BME280;7947;48.834;9.132;2023-10-19T04:29:21;96335.66;;;12.34;100.00
15694;BME280;7947;48.834;9.132;2023-10-19T04:32:28;96333.63;;;12.31;100.00
15694;BME280;7947;48.834;9.132;2023-10-19T04:35:33;96325.13;;;12.29;100.00
15694;BME280;7947;48.834;9.132;2023-10-19T04:38:36;96320.06;;;12.27;100.00
15694;BME280;7947;48.834;9.132;2023-10-19T04:41:39;96316.91;;;12.25;100.00
15694;BME280;7947;48.834;9.132;2023-10-19T04:44:44;96317.56;;;12.22;100.00
15694;BME280;7947;48.834;9.132;2023-10-19T04:47:50;96321.25;;;12.18;100.00
15694;BME280;7947;48.834;9.132;2023-10-19T04:50:54;96313.06;;;12.14;100.00
15694;BME280;7947;48.834;9.132;2023-10-19T04:53:58;96314.56;;;12.03;100.00
15694;BME280;7947;48.834;9.132;2023-10-19T04:57:01;96313.13;;;12.06;100.00
15694;BME280;7947;48.834;9.132;2023-10-19T05:00:06;96313.31;;;12.01;100.00
15694;BME280;7947;48.834;9.132;2023-10-19T05:03:12;96295.81;;;11.95;100.00
15694;BME280;7947;48.834;9.132;2023-10-19T05:06:20;96306.44;;;11.91;100.00
15694;BME280;7947;48.834;9.132;2023-10-19T05:09:23;96302.19;;;11.90;100.00
15694;BME280;7947;48.834;9.132;2023-10-19T05:12:26;96303.41;;;11.93;100.00
15694;BME280;7947;48.834;9.132;2023-10-19T05:15:30;96302.66;;;11.92;100.00
15694;BME280;7947;48.834;9.132;2023-10-19T05:18:33;96304.22;;;11.93;100.00
15694;BME280;7947;48.834;9.132;2023-10-19T05:21:36;96306.91;;;11.93;100.00
15694;BME280;7947;48.834;9.132;2023-10-19T05:24:39;96314.50;;;11.91;100.00
15694;BME280;7947;48.834;9.132;2023-10-19T05:27:42;96317.19;;;11.91;100.00
15694;BME280;7947;48.834;9.132;2023-10-19T05:30:48;96323.06;;;11.85;100.00
15694;BME280;7947;48.834;9.132;2023-10-19T05:33:52;96315.34;;;11.83;100.00
15694;BME280;7947;48.834;9.132;2023-10-19T05:36:54;96313.13;;;11.85;100.00
15694;BME280;7947;48.834;9.132;2023-10-19T05:40:00;96314.13;;;11.81;100.00
15694;BME280;7947;48.834;9.132;2023-10-19T05:43:06;96319.03;;;11.78;100.00
15694;BME280;7947;48.834;9.132;2023-10-19T05:46:10;96322.47;;;11.79;100.00
15694;BME280;7947;48.834;9.132;2023-10-19T05:49:15;96318.34;;;11.82;100.00
15694;BME280;7947;48.834;9.132;2023-10-19T05:52:18;96330.03;;;11.86;100.00
15694;BME280;7947;48.834;9.132;2023-10-19T05:55:21;96319.53;;;11.93;100.00
15694;BME280;7947;48.834;9.132;2023-10-19T05:58:24;96322.50;;;12.00;100.00
15694;BME280;7947;48.834;9.132;2023-10-19T06:01:28;96318.19;;;12.07;100.00
15694;BME280;7947;48.834;9.132;2023-10-19T06:04:31;96318.31;;;12.11;100.00
15694;BME280;7947;48.834;9.132;2023-10-19T06:07:35;96324.81;;;12.10;100.00
15694;BME280;7947;48.834;9.132;2023-10-19T06:10:37;96336.31;;;12.10;100.00
15694;BME280;7947;48.834;9.132;2023-10-19T06:13:41;96330.31;;;12.13;100.00
15694;BME280;7947;48.834;9.132;2023-10-19T06:16:46;96334.38;;;12.19;100.00
15694;BME280;7947;48.834;9.132;2023-10-19T06:19:49;96331.34;;;12.21;100.00
15694;BME280;7947;48.834;9.132;2023-10-19T06:22:53;96332.38;;;12.28;100.00
15694;BME280;7947;48.834;9.132;2023-10-19T06:25:57;96336.13;;;12.36;100.00
15694;BME280;7947;48.834;9.132;2023-10-19T06:29:01;96341.72;;;12.43;100.00
15694;BME280;7947;48.834;9.132;2023-10-19T06:32:06;96346.47;;;12.46;100.00
15694;BME280;7947;48.834;9.132;2023-10-19T06:35:11;96342.78;;;12.50;100.00
15694;BME280;7947;48.834;9.132;2023-10-19T06:38:14;96344.03;;;12.53;100.00
15694;BME280;7947;48.834;9.132;2023-10-19T06:41:20;96338.31;;;12.54;100.00
15694;BME280;7947;48.834;9.132;2023-10-19T06:44:23;96341.00;;;12.54;100.00
15694;BME280;7947;48.834;9.132;2023-10-19T06:47:28;96341.16;;;12.58;100.00
15694;BME280;7947;48.834;9.132;2023-10-19T06:50:32;96335.88;;;12.61;100.00
15694;BME280;7947;48.834;9.132;2023-10-19T06:53:35;96330.63;;;12.65;100.00
15694;BME280;7947;48.834;9.132;2023-10-19T06:56:38;96337.72;;;12.69;100.00
15694;BME280;7947;48.834;9.132;2023-10-19T06:59:41;96334.81;;;12.75;100.00
15694;BME280;7947;48.834;9.132;2023-10-19T07:02:46;96333.47;;;12.81;100.00
15694;BME280;7947;48.834;9.132;2023-10-19T07:05:51;96316.00;;;12.87;100.00
15694;BME280;7947;48.834;9.132;2023-10-19T07:08:55;96323.97;;;12.95;100.00
15694;BME280;7947;48.834;9.132;2023-10-19T07:11:58;96326.91;;;13.02;100.00
15694;BME280;7947;48.834;9.132;2023-10-19T07:15:03;96319.78;;;13.06;100.00
15694;BME280;7947;48.834;9.132;2023-10-19T07:18:09;96320.34;;;13.12;100.00
15694;BME280;7947;48.834;9.132;2023-10-19T07:21:14;96323.94;;;13.16;100.00
15694;BME280;7947;48.834;9.132;2023-10-19T07:24:19;96320.56;;;13.19;100.00
15694;BME280;7947;48.834;9.132;2023-10-19T07:27:25;96316.88;;;13.23;100.00
15694;BME280;7947;48.834;9.132;2023-10-19T07:30:39;96319.34;;;13.28;100.00
15694;BME280;7947;48.834;9.132;2023-10-19T07:33:43;96323.38;;;13.34;100.00
15694;BME280;7947;48.834;9.132;2023-10-19T07:36:48;96321.16;;;13.36;100.00
15694;BME280;7947;48.834;9.132;2023-10-19T07:39:51;96321.03;;;13.45;100.00
15694;BME280;7947;48.834;9.132;2023-10-19T07:42:58;96311.28;;;13.52;100.00
15694;BME280;7947;48.834;9.132;2023-10-19T07:46:01;96310.25;;;13.57;100.00
15694;BME280;7947;48.834;9.132;2023-10-19T07:49:05;96311.25;;;13.65;100.00
15694;BME280;7947;48.834;9.132;2023-10-19T07:52:10;96300.25;;;13.70;100.00
15694;BME280;7947;48.834;9.132;2023-10-19T07:55:14;96293.53;;;13.76;100.00
15694;BME280;7947;48.834;9.132;2023-10-19T07:58:17;96289.91;;;13.84;100.00
15694;BME280;7947;48.834;9.132;2023-10-19T08:01:20;96288.66;;;13.93;100.00
15694;BME280;7947;48.834;9.132;2023-10-19T08:04:26;96286.59;;;14.02;100.00
15694;BME280;7947;48.834;9.132;2023-10-19T08:07:29;96287.94;;;14.08;100.00
15694;BME280;7947;48.834;9.132;2023-10-19T08:10:33;96292.97;;;14.10;100.00
15694;BME280;7947;48.834;9.132;2023-10-19T08:13:36;96286.69;;;14.18;100.00
15694;BME280;7947;48.834;9.132;2023-10-19T08:16:39;96285.75;;;14.26;100.00
15694;BME280;7947;48.834;9.132;2023-10-19T08:19:44;96290.25;;;14.34;100.00
15694;BME280;7947;48.834;9.132;2023-10-19T08:22:47;96286.94;;;14.40;100.00
15694;BME280;7947;48.834;9.132;2023-10-19T08:25:50;96296.81;;;14.48;100.00
15694;BME280;7947;48.834;9.132;2023-10-19T08:28:57;96298.91;;;14.55;100.00
15694;BME280;7947;48.834;9.132;2023-10-19T08:32:00;96287.50;;;14.62;100.00
15694;BME280;7947;48.834;9.132;2023-10-19T08:35:06;96295.47;;;14.70;100.00
15694;BME280;7947;48.834;9.132;2023-10-19T08:38:09;96288.44;;;14.81;100.00
15694;BME280;7947;48.834;9.132;2023-10-19T08:41:13;96286.81;;;14.92;100.00
15694;BME280;7947;48.834;9.132;2023-10-19T08:44:16;96286.28;;;15.02;100.00
15694;BME280;7947;48.834;9.132;2023-10-19T08:47:19;96279.56;;;15.12;100.00
15694;BME280;7947;48.834;9.132;2023-10-19T08:50:30;96274.00;;;15.20;100.00
15694;BME280;7947;48.834;9.132;2023-10-19T08:53:33;96270.69;;;15.27;100.00
15694;BME280;7947;48.834;9.132;2023-10-19T08:56:43;96272.41;;;15.35;100.00
15694;BME280;7947;48.834;9.132;2023-10-19T08:59:46;96270.25;;;15.41;100.00
15694;BME280;7947;48.834;9.132;2023-10-19T09:02:51;96272.63;;;15.42;100.00
15694;BME280;7947;48.834;9.132;2023-10-19T09:05:55;96264.66;;;15.49;100.00
15694;BME280;7947;48.834;9.132;2023-10-19T09:08:58;96271.09;;;15.60;100.00
15694;BME280;7947;48.834;9.132;2023-10-19T09:12:01;96272.28;;;15.78;100.00
15694;BME280;7947;48.834;9.132;2023-10-19T09:15:06;96266.75;;;15.90;100.00
15694;BME280;7947;48.834;9.132;2023-10-19T09:18:24;96260.94;;;16.07;100.00
15694;BME280;7947;48.834;9.132;2023-10-19T09:21:31;96263.63;;;16.26;100.00
15694;BME280;7947;48.834;9.132;2023-10-19T09:24:34;96258.44;;;16.37;100.00
15694;BME280;7947;48.834;9.132;2023-10-19T09:27:38;96262.22;;;16.52;100.00
15694;BME280;7947;48.834;9.132;2023-10-19T09:30:42;96258.72;;;16.70;100.00
15694;BME280;7947;48.834;9.132;2023-10-19T09:33:46;96253.06;;;16.79;100.00
15694;BME280;7947;48.834;9.132;2023-10-19T09:36:52;96243.94;;;16.87;100.00
15694;BME280;7947;48.834;9.132;2023-10-19T09:39:55;96236.09;;;17.04;99.98
15694;BME280;7947;48.834;9.132;2023-10-19T09:42:58;96235.09;;;17.12;98.08
15694;BME280;7947;48.834;9.132;2023-10-19T09:46:06;96232.75;;;17.11;97.70
15694;BME280;7947;48.834;9.132;2023-10-19T09:49:10;96223.09;;;17.13;96.65
15694;BME280;7947;48.834;9.132;2023-10-19T09:52:16;96238.38;;;17.25;96.88
15694;BME280;7947;48.834;9.132;2023-10-19T09:55:24;96232.28;;;17.32;96.62
15694;BME280;7947;48.834;9.132;2023-10-19T09:58:34;96230.72;;;17.31;96.25
15694;BME280;7947;48.834;9.132;2023-10-19T10:02:06;96226.69;;;17.21;95.25
15694;BME280;7947;48.834;9.132;2023-10-19T10:08:53;96234.66;;;17.10;96.22
15694;BME280;7947;48.834;9.132;2023-10-19T10:12:15;96229.91;;;17.04;96.55
15694;BME280;7947;48.834;9.132;2023-10-19T10:15:38;96237.06;;;16.93;96.44
15694;BME280;7947;48.834;9.132;2023-10-19T10:18:42;96237.44;;;16.91;97.32
15694;BME280;7947;48.834;9.132;2023-10-19T10:22:03;96234.31;;;16.89;97.18
15694;BME280;7947;48.834;9.132;2023-10-19T10:25:25;96233.94;;;16.91;97.56
15694;BME280;7947;48.834;9.132;2023-10-19T10:28:28;96226.19;;;16.89;97.44
15694;BME280;7947;48.834;9.132;2023-10-19T10:31:34;96224.25;;;16.90;97.61
15694;BME280;7947;48.834;9.132;2023-10-19T10:34:44;96216.53;;;16.92;96.55
15694;BME280;7947;48.834;9.132;2023-10-19T10:37:53;96219.25;;;16.92;96.55
15694;BME280;7947;48.834;9.132;2023-10-19T10:40:59;96216.63;;;16.95;96.58
15694;BME280;7947;48.834;9.132;2023-10-19T10:44:02;96217.03;;;16.97;96.72
15694;BME280;7947;48.834;9.132;2023-10-19T10:47:07;96219.38;;;16.99;97.00
15694;BME280;7947;48.834;9.132;2023-10-19T10:50:11;96220.94;;;17.00;96.59
15694;BME280;7947;48.834;9.132;2023-10-19T10:53:14;96210.91;;;17.00;96.77
15694;BME280;7947;48.834;9.132;2023-10-19T10:56:20;96217.84;;;17.01;97.66
15694;BME280;7947;48.834;9.132;2023-10-19T10:59:24;96219.88;;;17.04;98.01
15694;BME280;7947;48.834;9.132;2023-10-19T11:02:27;96225.69;;;17.06;98.65
15694;BME280;7947;48.834;9.132;2023-10-19T11:05:31;96224.91;;;17.06;98.30
15694;BME280;7947;48.834;9.132;2023-10-19T11:08:37;96226.06;;;17.05;97.82
15694;BME280;7947;48.834;9.132;2023-10-19T11:11:41;96223.34;;;17.05;97.38
15694;BME280;7947;48.834;9.132;2023-10-19T11:14:54;96225.66;;;17.03;96.91
15694;BME280;7947;48.834;9.132;2023-10-19T11:17:57;96212.44;;;17.01;97.43
15694;BME280;7947;48.834;9.132;2023-10-19T11:21:02;96220.50;;;16.98;98.30
15694;BME280;7947;48.834;9.132;2023-10-19T11:24:08;96222.81;;;16.96;99.69
15694;BME280;7947;48.834;9.132;2023-10-19T11:27:13;96229.38;;;16.95;99.08
15694;BME280;7947;48.834;9.132;2023-10-19T11:30:22;96226.19;;;16.89;97.85
15694;BME280;7947;48.834;9.132;2023-10-19T11:33:26;96215.66;;;16.84;97.02
15694;BME280;7947;48.834;9.132;2023-10-19T11:36:29;96216.25;;;16.74;98.06
15694;BME280;7947;48.834;9.132;2023-10-19T11:39:32;96223.19;;;16.72;98.49
15694;BME280;7947;48.834;9.132;2023-10-19T11:42:36;96218.03;;;16.67;98.81
15694;BME280;7947;48.834;9.132;2023-10-19T11:45:39;96218.72;;;16.60;99.28
15694;BME280;7947;48.834;9.132;2023-10-19T11:48:44;96218.66;;;16.57;100.00
15694;BME280;7947;48.834;9.132;2023-10-19T11:51:49;96218.56;;;16.53;100.00
15694;BME280;7947;48.834;9.132;2023-10-19T11:54:53;96204.19;;;16.49;100.00
15694;BME280;7947;48.834;9.132;2023-10-19T11:57:58;96189.03;;;16.45;100.00
15694;BME280;7947;48.834;9.132;2023-10-19T12:01:03;96175.44;;;16.41;100.00
15694;BME280;7947;48.834;9.132;2023-10-19T12:04:10;96168.38;;;16.37;100.00
15694;BME280;7947;48.834;9.132;2023-10-19T12:07:14;96159.41;;;16.33;100.00
15694;BME280;7947;48.834;9.132;2023-10-19T12:10:19;96157.50;;;16.33;100.00
15694;BME280;7947;48.834;9.132;2023-10-19T12:13:29;96164.41;;;16.31;100.00
15694;BME280;7947;48.834;9.132;2023-10-19T12:16:34;96159.72;;;16.27;100.00
15694;BME280;7947;48.834;9.132;2023-10-19T12:19:38;96143.41;;;16.24;100.00
15694;BME280;7947;48.834;9.132;2023-10-19T12:22:43;96129.06;;;16.20;100.00
15694;BME280;7947;48.834;9.132;2023-10-19T12:25:48;96138.69;;;16.17;100.00
15694;BME280;7947;48.834;9.132;2023-10-19T12:29:00;96134.06;;;16.18;100.00
15694;BME280;7947;48.834;9.132;2023-10-19T12:32:07;96139.09;;;16.19;100.00
15694;BME280;7947;48.834;9.132;2023-10-19T12:35:11;96120.09;;;16.16;100.00
15694;BME280;7947;48.834;9.132;2023-10-19T12:38:19;96126.28;;;16.16;100.00
15694;BME280;7947;48.834;9.132;2023-10-19T12:41:23;96120.16;;;16.19;100.00
15694;BME280;7947;48.834;9.132;2023-10-19T12:44:29;96113.47;;;16.13;100.00
15694;BME280;7947;48.834;9.132;2023-10-19T12:47:42;96102.97;;;16.08;100.00
15694;BME280;7947;48.834;9.132;2023-10-19T12:50:47;96119.84;;;16.02;100.00
15694;BME280;7947;48.834;9.132;2023-10-19T12:53:51;96127.16;;;16.01;100.00
15694;BME280;7947;48.834;9.132;2023-10-19T12:56:55;96127.16;;;16.01;100.00
15694;BME280;7947;48.834;9.132;2023-10-19T13:00:01;96141.91;;;16.04;100.00
15694;BME280;7947;48.834;9.132;2023-10-19T13:03:26;96138.78;;;16.02;100.00
15694;BME280;7947;48.834;9.132;2023-10-19T13:06:34;96137.91;;;15.98;100.00
15694;BME280;7947;48.834;9.132;2023-10-19T13:09:38;96142.53;;;15.97;100.00
15694;BME280;7947;48.834;9.132;2023-10-19T13:12:42;96145.22;;;15.97;100.00
15694;BME280;7947;48.834;9.132;2023-10-19T13:15:48;96147.16;;;15.97;100.00
15694;BME280;7947;48.834;9.132;2023-10-19T13:18:53;96139.03;;;15.97;100.00
15694;BME280;7947;48.834;9.132;2023-10-19T13:21:57;96133.28;;;15.98;100.00
15694;BME280;7947;48.834;9.132;2023-10-19T13:25:07;96124.75;;;15.96;100.00
15694;BME280;7947;48.834;9.132;2023-10-19T13:28:15;96116.28;;;15.98;100.00
15694;BME280;7947;48.834;9.132;2023-10-19T13:31:21;96116.28;;;15.98;100.00
15694;BME280;7947;48.834;9.132;2023-10-19T13:34:26;96113.94;;;15.96;100.00
15694;BME280;7947;48.834;9.132;2023-10-19T13:37:30;96109.72;;;15.99;100.00
15694;BME280;7947;48.834;9.132;2023-10-19T13:40:35;96105.91;;;16.00;100.00
15694;BME280;7947;48.834;9.132;2023-10-19T13:43:40;96108.59;;;16.00;100.00
15694;BME280;7947;48.834;9.132;2023-10-19T13:46:46;96108.66;;;16.03;100.00
15694;BME280;7947;48.834;9.132;2023-10-19T13:49:53;96095.19;;;16.07;100.00
15694;BME280;7947;48.834;9.132;2023-10-19T13:52:58;96094.00;;;16.04;100.00
15694;BME280;7947;48.834;9.132;2023-10-19T13:56:03;96093.59;;;16.02;100.00
15694;BME280;7947;48.834;9.132;2023-10-19T13:59:11;96090.09;;;16.02;100.00
15694;BME280;7947;48.834;9.132;2023-10-19T14:02:18;96088.19;;;16.02;100.00
15694;BME280;7947;48.834;9.132;2023-10-19T14:05:22;96083.53;;;16.03;100.00
15694;BME280;7947;48.834;9.132;2023-10-19T14:08:27;96074.72;;;16.06;100.00
15694;BME280;7947;48.834;9.132;2023-10-19T14:11:31;96070.88;;;16.07;100.00
15694;BME280;7947;48.834;9.132;2023-10-19T14:14:35;96066.25;;;16.07;100.00
15694;BME280;7947;48.834;9.132;2023-10-19T14:17:42;96065.13;;;16.08;100.00
15694;BME280;7947;48.834;9.132;2023-10-19T14:20:46;96065.13;;;16.08;100.00
15694;BME280;7947;48.834;9.132;2023-10-19T14:23:51;96069.75;;;16.08;100.00
15694;BME280;7947;48.834;9.132;2023-10-19T14:26:56;96056.91;;;16.05;100.00
15694;BME280;7947;48.834;9.132;2023-10-19T14:30:02;96057.66;;;16.02;100.00
15694;BME280;7947;48.834;9.132;2023-10-19T14:33:08;96057.28;;;16.03;100.00
15694;BME280;7947;48.834;9.132;2023-10-19T14:36:13;96049.97;;;16.04;100.00
15694;BME280;7947;48.834;9.132;2023-10-19T14:39:17;96034.09;;;16.02;100.00
15694;BME280;7947;48.834;9.132;2023-10-19T14:42:22;96025.25;;;16.05;100.00
15694;BME280;7947;48.834;9.132;2023-10-19T14:45:27;96013.59;;;16.01;100.00
15694;BME280;7947;48.834;9.132;2023-10-19T14:48:33;96012.81;;;16.01;100.00
15694;BME280;7947;48.834;9.132;2023-10-19T14:51:37;96007.72;;;15.96;100.00
15694;BME280;7947;48.834;9.132;2023-10-19T14:54:41;96012.66;;;15.90;100.00
15694;BME280;7947;48.834;9.132;2023-10-19T14:57:49;96004.13;;;15.88;100.00
15694;BME280;7947;48.834;9.132;2023-10-19T15:00:55;96002.84;;;15.82;100.00
15694;BME280;7947;48.834;9.132;2023-10-19T15:04:01;95997.81;;;15.81;100.00
15694;BME280;7947;48.834;9.132;2023-10-19T15:07:06;95993.91;;;15.78;100.00
15694;BME280;7947;48.834;9.132;2023-10-19T15:10:10;95973.06;;;15.79;100.00
15694;BME280;7947;48.834;9.132;2023-10-19T15:13:15;95977.56;;;15.71;100.00
15694;BME280;7947;48.834;9.132;2023-10-19T15:16:18;95958.66;;;15.71;100.00
15694;BME280;7947;48.834;9.132;2023-10-19T15:19:24;95959.41;;;15.72;100.00
15694;BME280;7947;48.834;9.132;2023-10-19T15:22:28;95954.00;;;15.72;100.00
15694;BME280;7947;48.834;9.132;2023-10-19T15:25:32;95953.63;;;15.70;100.00
15694;BME280;7947;48.834;9.132;2023-10-19T15:28:36;95952.09;;;15.72;100.00
15694;BME280;7947;48.834;9.132;2023-10-19T15:31:40;95953.69;;;15.73;100.00
15694;BME280;7947;48.834;9.132;2023-10-19T15:34:46;95954.44;;;15.74;100.00
15694;BME280;7947;48.834;9.132;2023-10-19T15:37:52;95952.94;;;15.76;100.00
15694;BME280;7947;48.834;9.132;2023-10-19T15:40:58;95945.63;;;15.77;100.00
15694;BME280;7947;48.834;9.132;2023-10-19T15:44:02;95933.19;;;15.72;100.00
15694;BME280;7947;48.834;9.132;2023-10-19T15:47:05;95915.00;;;15.69;100.00
15694;BME280;7947;48.834;9.132;2023-10-19T15:50:16;95914.25;;;15.72;100.00
15694;BME280;7947;48.834;9.132;2023-10-19T15:53:20;95911.56;;;15.72;100.00
15694;BME280;7947;48.834;9.132;2023-10-19T15:56:24;95905.75;;;15.70;100.00
15694;BME280;7947;48.834;9.132;2023-10-19T15:59:29;95912.28;;;15.69;100.00
15694;BME280;7947;48.834;9.132;2023-10-19T16:02:33;95907.31;;;15.71;100.00
15694;BME280;7947;48.834;9.132;2023-10-19T16:05:38;95913.41;;;15.68;100.00
15694;BME280;7947;48.834;9.132;2023-10-19T16:08:42;95920.34;;;15.66;100.00
15694;BME280;7947;48.834;9.132;2023-10-19T16:11:46;95920.34;;;15.66;100.00
15694;BME280;7947;48.834;9.132;2023-10-19T16:14:52;95923.81;;;15.66;100.00
15694;BME280;7947;48.834;9.132;2023-10-19T16:17:57;95943.94;;;15.69;100.00
15694;BME280;7947;48.834;9.132;2023-10-19T16:21:06;95938.47;;;15.65;100.00
15694;BME280;7947;48.834;9.132;2023-10-19T16:24:10;95940.38;;;15.65;100.00
15694;BME280;7947;48.834;9.132;2023-10-19T16:27:14;95942.72;;;15.66;100.00
15694;BME280;7947;48.834;9.132;2023-10-19T16:30:19;95932.72;;;15.67;100.00